createdAt,value
2018-10-21T00:00:51.194Z,13.60
2018-10-21T00:03:20.922Z,7.80
2018-10-21T00:05:55.303Z,10.40
2018-10-21T00:08:30.653Z,10.20
2018-10-21T00:11:00.309Z,10.20
2018-10-21T00:13:30.323Z,9.20
2018-10-21T00:16:00.227Z,8.00
2018-10-21T00:18:29.983Z,10.20
2018-10-21T00:21:00.052Z,10.00
2018-10-21T00:23:29.571Z,6.20
2018-10-21T00:25:59.118Z,11.60
2018-10-21T00:28:28.722Z,10.40
2018-10-21T00:30:58.231Z,7.80
2018-10-21T00:33:27.790Z,8.00
2018-10-21T00:35:57.865Z,7.40
2018-10-21T00:38:30.166Z,10.80
2018-10-21T00:40:59.748Z,10.40
2018-10-21T00:43:29.336Z,8.00
2018-10-21T00:45:58.991Z,7.80
2018-10-21T00:48:28.541Z,10.00
2018-10-21T00:50:59.303Z,10.00
2018-10-21T00:53:29.234Z,9.40
2018-10-21T00:55:58.762Z,10.60
2018-10-21T00:58:28.957Z,7.40
2018-10-21T01:00:58.494Z,8.40
2018-10-21T01:03:28.078Z,10.00
2018-10-21T01:05:59.133Z,6.60
2018-10-21T01:08:28.746Z,7.00
2018-10-21T01:10:58.729Z,7.80
2018-10-21T01:13:28.285Z,8.00
2018-10-21T01:15:58.237Z,10.80
2018-10-21T01:18:27.834Z,5.40
2018-10-21T01:20:57.438Z,8.40
2018-10-21T01:23:26.973Z,7.20
2018-10-21T01:25:56.508Z,7.00
2018-10-21T01:28:26.189Z,8.20
2018-10-21T01:30:56.246Z,6.60
2018-10-21T01:33:25.895Z,7.00
2018-10-21T01:35:55.526Z,8.00
2018-10-21T01:38:25.065Z,10.00
2018-10-21T01:40:57.594Z,7.00
2018-10-21T01:43:28.298Z,6.80
2018-10-21T01:45:58.133Z,7.00
2018-10-21T01:48:28.682Z,7.60
2018-10-21T01:50:58.360Z,7.60
2018-10-21T01:53:28.037Z,8.00
2018-10-21T01:55:57.656Z,7.20
2018-10-21T01:58:27.207Z,7.60
2018-10-21T02:00:57.516Z,7.40
2018-10-21T02:03:27.078Z,7.00
2018-10-21T02:05:56.585Z,6.60
2018-10-21T02:08:26.161Z,4.60
2018-10-21T02:10:55.659Z,4.00
2018-10-21T02:13:25.187Z,8.00
2018-10-21T02:15:54.694Z,9.20
2018-10-21T02:18:24.273Z,5.20
2018-10-21T02:20:53.820Z,7.00
2018-10-21T02:23:23.394Z,5.00
2018-10-21T02:25:53.401Z,6.80
2018-10-21T02:28:23.041Z,7.80
2018-10-21T02:30:52.616Z,8.80
2018-10-21T02:33:22.312Z,7.00
2018-10-21T02:35:51.904Z,5.00
2018-10-21T02:38:21.501Z,8.00
2018-10-21T02:45:00.046Z,9.80
2018-10-21T02:47:29.543Z,6.40
2018-10-21T02:50:00.466Z,6.60
2018-10-21T02:52:29.986Z,7.00
2018-10-21T02:54:59.489Z,4.20
2018-10-21T02:57:29.084Z,5.00
2018-10-21T02:59:58.655Z,5.80
2018-10-21T03:02:28.730Z,7.60
2018-10-21T03:04:58.316Z,7.20
2018-10-21T03:07:27.871Z,6.20
2018-10-21T03:09:57.473Z,4.00
2018-10-21T03:12:27.196Z,6.20
2018-10-21T03:14:57.223Z,6.80
2018-10-21T03:17:26.803Z,4.60
2018-10-21T03:19:56.376Z,7.60
2018-10-21T03:22:25.952Z,6.20
2018-10-21T03:24:55.528Z,5.20
2018-10-21T03:27:25.510Z,5.00
2018-10-21T03:29:55.145Z,7.00
2018-10-21T03:32:24.967Z,5.40
2018-10-21T03:34:54.508Z,5.00
2018-10-21T03:37:24.052Z,6.20
2018-10-21T03:39:53.668Z,5.20
2018-10-21T03:42:23.680Z,4.40
2018-10-21T03:44:53.409Z,5.40
2018-10-21T03:47:23.280Z,5.00
2018-10-21T03:49:52.835Z,7.00
2018-10-21T03:52:22.580Z,5.40
2018-10-21T03:54:52.162Z,7.40
2018-10-21T03:57:21.707Z,4.20
2018-10-21T03:59:51.301Z,4.20
2018-10-21T04:02:20.866Z,4.00
2018-10-21T04:04:51.289Z,4.00
2018-10-21T04:07:20.896Z,5.00
2018-10-21T04:09:50.808Z,6.00
2018-10-21T04:12:20.380Z,4.40
2018-10-21T04:14:50.081Z,4.00
2018-10-21T04:17:20.216Z,4.00
2018-10-21T04:19:49.778Z,5.00
2018-10-21T04:22:19.389Z,5.60
2018-10-21T04:24:48.975Z,4.40
2018-10-21T04:27:19.059Z,8.40
2018-10-21T04:29:48.869Z,5.40
2018-10-21T04:32:18.438Z,4.00
2018-10-21T04:34:48.010Z,4.00
2018-10-21T04:37:28.205Z,4.00
2018-10-21T04:40:11.527Z,4.20
2018-10-21T04:42:41.122Z,4.00
2018-10-21T04:45:11.629Z,4.80
2018-10-21T04:47:41.390Z,4.00
2018-10-21T04:50:11.846Z,3.60
2018-10-21T04:52:41.468Z,5.00
2018-10-21T04:55:12.280Z,4.00
2018-10-21T04:57:42.889Z,5.00
2018-10-21T05:00:15.082Z,3.20
2018-10-21T05:02:45.094Z,5.00
2018-10-21T05:05:15.511Z,4.20
2018-10-21T05:07:45.071Z,5.40
2018-10-21T05:10:31.785Z,3.60
2018-10-21T05:13:01.917Z,4.00
2018-10-21T05:15:32.681Z,4.00
2018-10-21T05:18:02.364Z,4.80
2018-10-21T05:20:32.037Z,4.00
2018-10-21T05:23:01.686Z,2.40
2018-10-21T05:25:31.383Z,5.00
2018-10-21T05:28:01.915Z,4.80
2018-10-21T05:30:31.521Z,4.00
2018-10-21T05:33:01.146Z,2.00
2018-10-21T05:35:30.733Z,2.40
2018-10-21T05:38:00.381Z,3.60
2018-10-21T05:40:30.018Z,4.00
2018-10-21T05:43:00.236Z,5.00
2018-10-21T05:45:30.365Z,3.20
2018-10-21T05:48:00.208Z,4.00
2018-10-21T05:50:29.842Z,3.00
2018-10-21T05:53:01.510Z,4.40
2018-10-21T05:55:31.627Z,4.60
2018-10-21T05:58:01.439Z,4.00
2018-10-21T06:00:31.056Z,2.00
2018-10-21T06:03:00.654Z,1.60
2018-10-21T06:05:40.806Z,1.80
2018-10-21T06:10:33.057Z,3.00
2018-10-21T06:13:02.985Z,2.00
2018-10-21T06:15:33.191Z,2.00
2018-10-21T06:18:03.584Z,1.00
2018-10-21T06:20:39.085Z,4.40
2018-10-21T06:23:08.752Z,4.20
2018-10-21T06:25:38.386Z,4.40
2018-10-21T06:28:08.576Z,4.00
2018-10-21T06:30:38.297Z,5.40
2018-10-21T06:33:08.008Z,5.80
2018-10-21T06:35:37.625Z,5.80
2018-10-21T06:38:08.169Z,2.00
2018-10-21T06:40:37.760Z,5.00
2018-10-21T06:43:08.105Z,3.60
2018-10-21T06:45:37.920Z,4.40
2018-10-21T06:48:07.883Z,4.00
2018-10-21T06:50:37.686Z,4.00
2018-10-21T06:53:07.515Z,4.60
2018-10-21T06:55:37.150Z,4.00
2018-10-21T06:58:07.275Z,6.00
2018-10-21T07:00:37.112Z,4.00
2018-10-21T07:03:07.044Z,5.00
2018-10-21T07:06:29.360Z,7.40
2018-10-21T07:09:01.460Z,7.40
2018-10-21T07:11:30.965Z,7.00
2018-10-21T07:14:00.420Z,5.80
2018-10-21T07:16:30.062Z,5.40
2018-10-21T07:18:59.503Z,6.60
2018-10-21T07:21:28.942Z,6.40
2018-10-21T07:23:58.552Z,11.00
2018-10-21T07:26:27.999Z,7.00
2018-10-21T07:28:57.528Z,5.80
2018-10-21T07:31:27.017Z,8.00
2018-10-21T07:33:56.493Z,9.80
2018-10-21T07:36:26.228Z,4.20
2018-10-21T07:38:55.803Z,6.60
2018-10-21T07:41:25.914Z,6.60
2018-10-21T07:43:55.389Z,4.60
2018-10-21T07:46:25.247Z,5.20
2018-10-21T07:48:55.296Z,7.00
2018-10-21T07:51:24.975Z,7.20
2018-10-21T07:53:54.672Z,4.40
2018-10-21T07:56:24.281Z,3.20
2018-10-21T07:58:54.040Z,4.00
2018-10-21T08:01:23.734Z,1.80
2018-10-21T08:03:53.485Z,5.00
2018-10-21T08:06:36.813Z,5.00
2018-10-21T08:09:10.210Z,5.40
2018-10-21T08:11:40.048Z,5.00
2018-10-21T08:14:10.249Z,4.40
2018-10-21T08:16:40.367Z,4.00
2018-10-21T08:19:10.405Z,4.00
2018-10-21T08:21:40.149Z,3.00
2018-10-21T08:24:09.691Z,4.40
2018-10-21T08:26:40.145Z,4.40
2018-10-21T08:29:10.204Z,4.00
2018-10-21T08:31:40.203Z,2.00
2018-10-21T08:34:09.982Z,4.80
2018-10-21T08:36:39.620Z,7.20
2018-10-21T08:39:09.724Z,2.20
2018-10-21T08:41:39.445Z,7.00
2018-10-21T08:44:09.642Z,4.40
2018-10-21T08:46:39.813Z,5.40
2018-10-21T08:49:10.350Z,2.00
2018-10-21T08:51:40.277Z,4.00
2018-10-21T08:54:10.360Z,4.60
2018-10-21T08:56:39.982Z,2.40
2018-10-21T08:59:10.105Z,4.20
2018-10-21T09:01:39.995Z,2.00
2018-10-21T09:04:09.772Z,4.80
2018-10-21T09:06:39.948Z,5.40
2018-10-21T09:09:11.168Z,4.00
2018-10-21T09:11:42.252Z,3.40
2018-10-21T09:14:12.478Z,4.20
2018-10-21T09:16:42.354Z,4.20
2018-10-21T09:19:12.385Z,2.80
2018-10-21T09:21:42.459Z,3.60
2018-10-21T09:24:12.384Z,4.00
2018-10-21T09:26:43.687Z,2.00
2018-10-21T09:29:14.208Z,3.20
2018-10-21T09:31:44.453Z,4.00
2018-10-21T09:34:14.258Z,3.20
2018-10-21T09:36:45.246Z,4.00
2018-10-21T09:39:15.738Z,2.00
2018-10-21T09:41:53.124Z,5.00
2018-10-21T09:44:24.730Z,3.20
2018-10-21T09:46:57.768Z,4.00
2018-10-21T09:49:28.016Z,2.20
2018-10-21T09:51:57.954Z,4.60
2018-10-21T09:54:27.822Z,2.80
2018-10-21T09:56:58.541Z,3.20
2018-10-21T09:59:28.618Z,3.60
2018-10-21T10:02:03.312Z,4.00
2018-10-21T10:04:32.909Z,3.20
2018-10-21T10:07:04.299Z,4.80
2018-10-21T10:09:35.526Z,3.60
2018-10-21T10:12:09.849Z,4.00
2018-10-21T10:14:39.524Z,5.00
2018-10-21T10:17:09.108Z,4.00
2018-10-21T10:19:41.311Z,2.00
2018-10-21T10:22:11.009Z,4.00
2018-10-21T10:24:40.784Z,4.00
2018-10-21T10:27:15.168Z,4.20
2018-10-21T10:29:45.584Z,4.60
2018-10-21T10:32:16.818Z,4.00
2018-10-21T10:34:46.974Z,4.00
2018-10-21T10:37:17.255Z,4.00
2018-10-21T10:39:48.084Z,3.60
2018-10-21T10:42:17.713Z,4.00
2018-10-21T10:44:47.413Z,4.00
2018-10-21T10:47:17.248Z,2.00
2018-10-21T10:49:47.476Z,3.20
2018-10-21T10:52:17.739Z,2.00
2018-10-21T10:54:47.253Z,4.00
2018-10-21T10:57:17.333Z,1.00
2018-10-21T10:59:47.384Z,4.00
2018-10-21T11:02:17.461Z,4.60
2018-10-21T11:04:47.519Z,2.00
2018-10-21T11:07:18.244Z,7.20
2018-10-21T11:09:48.501Z,5.00
2018-10-21T11:12:19.269Z,6.20
2018-10-21T11:14:49.207Z,6.60
2018-10-21T11:17:19.220Z,7.00
2018-10-21T11:19:49.797Z,4.40
2018-10-21T11:22:24.553Z,5.00
2018-10-21T11:24:55.372Z,8.60
2018-10-21T11:27:26.100Z,7.20
2018-10-21T11:29:56.606Z,5.80
2018-10-21T11:32:30.559Z,4.80
2018-10-21T11:35:04.680Z,6.20
2018-10-21T11:37:35.190Z,5.20
2018-10-21T11:40:05.199Z,5.80
2018-10-21T11:42:34.668Z,5.00
2018-10-21T11:45:04.711Z,4.20
2018-10-21T11:47:34.373Z,5.00
2018-10-21T11:50:04.084Z,5.00
2018-10-21T11:52:34.039Z,4.00
2018-10-21T11:55:04.574Z,4.40
2018-10-21T11:57:34.575Z,2.80
2018-10-21T12:00:05.200Z,3.00
2018-10-21T12:02:35.229Z,3.80
2018-10-21T12:05:05.266Z,4.00
2018-10-21T12:07:36.362Z,4.80
2018-10-21T12:10:07.486Z,4.20
2018-10-21T12:12:37.351Z,2.80
2018-10-21T12:15:07.957Z,4.60
2018-10-21T12:17:38.100Z,3.20
2018-10-21T12:20:10.013Z,4.60
2018-10-21T12:22:41.075Z,2.00
2018-10-21T12:25:11.536Z,3.60
2018-10-21T12:27:41.281Z,2.40
2018-10-21T12:30:12.229Z,2.00
2018-10-21T12:32:42.029Z,4.80
2018-10-21T12:35:13.487Z,3.20
2018-10-21T12:37:44.135Z,4.00
2018-10-21T12:40:14.380Z,2.00
2018-10-21T12:42:44.396Z,2.00
2018-10-21T12:45:13.868Z,1.40
2018-10-21T12:47:43.869Z,2.00
2018-10-21T12:50:14.130Z,1.40
2018-10-21T12:52:43.701Z,2.00
2018-10-21T12:55:14.346Z,2.00
2018-10-21T12:57:44.064Z,1.60
2018-10-21T13:00:13.863Z,2.00
2018-10-21T13:02:43.772Z,2.00
2018-10-21T13:05:13.756Z,1.40
2018-10-21T13:07:43.594Z,2.00
2018-10-21T13:10:14.580Z,2.00
2018-10-21T13:12:44.205Z,1.80
2018-10-21T13:15:14.087Z,2.00
2018-10-21T13:17:43.763Z,0.80
2018-10-21T13:20:14.651Z,2.00
2018-10-21T13:22:46.203Z,1.00
2018-10-21T13:25:16.539Z,2.20
2018-10-21T13:27:46.310Z,2.00
2018-10-21T13:30:17.386Z,1.60
2018-10-21T13:32:50.443Z,0.80
2018-10-21T13:35:22.232Z,2.00
2018-10-21T13:37:53.939Z,2.40
2018-10-21T13:40:23.631Z,2.00
2018-10-21T13:42:53.180Z,2.20
2018-10-21T13:45:23.284Z,1.60
2018-10-21T13:47:53.047Z,3.00
2018-10-21T13:50:22.907Z,1.40
2018-10-21T13:52:53.282Z,4.00
2018-10-21T13:55:24.188Z,1.00
2018-10-21T13:57:54.771Z,2.00
2018-10-21T14:00:27.115Z,3.40
2018-10-21T14:02:56.609Z,1.40
2018-10-21T14:05:26.804Z,2.00
2018-10-21T14:08:01.306Z,1.80
2018-10-21T14:10:35.332Z,1.00
2018-10-21T14:13:05.018Z,1.60
2018-10-21T14:15:35.576Z,2.00
2018-10-21T14:18:05.240Z,1.00
2018-10-21T14:20:35.009Z,2.00
2018-10-21T14:23:05.719Z,1.80
2018-10-21T14:25:35.596Z,1.00
2018-10-21T14:28:05.859Z,1.00
2018-10-21T14:30:36.255Z,2.20
2018-10-21T14:33:07.019Z,1.00
2018-10-21T14:35:36.919Z,2.20
2018-10-21T14:38:07.061Z,1.00
2018-10-21T14:40:36.746Z,1.00
2018-10-21T14:43:07.132Z,1.20
2018-10-21T14:45:36.810Z,1.80
2018-10-21T14:48:10.617Z,0.60
2018-10-21T14:50:41.904Z,1.00
2018-10-21T14:53:12.278Z,2.00
2018-10-21T14:55:42.624Z,0.40
2018-10-21T14:58:12.372Z,0.60
2018-10-21T15:00:42.069Z,1.00
2018-10-21T15:03:12.049Z,1.60
2018-10-21T15:05:41.723Z,2.00
2018-10-21T15:08:12.022Z,1.00
2018-10-21T15:10:42.316Z,0.00
2018-10-21T15:13:12.182Z,0.60
2018-10-21T15:15:42.542Z,1.00
2018-10-21T15:18:14.163Z,1.00
2018-10-21T15:20:44.484Z,0.00
2018-10-21T15:23:14.912Z,1.80
2018-10-21T15:25:44.620Z,1.00
2018-10-21T15:28:14.265Z,2.00
2018-10-21T15:30:44.929Z,0.80
2018-10-21T15:33:15.747Z,0.00
2018-10-21T15:35:47.060Z,1.00
2018-10-21T15:38:16.705Z,0.00
2018-10-21T15:40:47.917Z,0.00
2018-10-21T15:43:18.132Z,1.00
2018-10-21T15:45:48.599Z,0.40
2018-10-21T15:48:18.760Z,1.00
2018-10-21T15:50:48.591Z,1.60
2018-10-21T15:53:18.373Z,0.80
2018-10-21T15:55:48.184Z,1.00
2018-10-21T15:58:17.870Z,1.00
2018-10-21T16:00:47.923Z,1.00
2018-10-21T16:03:17.400Z,1.00
2018-10-21T16:05:47.976Z,1.00
2018-10-21T16:08:18.158Z,1.00
2018-10-21T16:10:48.092Z,1.00
2018-10-21T16:13:18.352Z,0.20
2018-10-21T16:15:48.133Z,1.00
2018-10-21T16:18:18.932Z,1.00
2018-10-21T16:20:48.713Z,1.00
2018-10-21T16:23:18.791Z,0.40
2018-10-21T16:25:49.371Z,2.20
2018-10-21T16:28:19.450Z,1.00
2018-10-21T16:30:49.636Z,1.00
2018-10-21T16:33:19.430Z,1.00
2018-10-21T16:35:49.766Z,1.00
2018-10-21T16:38:19.514Z,1.40
2018-10-21T16:40:49.718Z,1.20
2018-10-21T16:43:19.265Z,2.00
2018-10-21T16:45:55.280Z,2.20
2018-10-21T16:48:24.994Z,3.60
2018-10-21T16:50:55.106Z,3.20
2018-10-21T16:53:25.238Z,2.60
2018-10-21T16:55:55.243Z,3.00
2018-10-21T16:58:26.180Z,2.00
2018-10-21T17:00:56.826Z,4.60
2018-10-21T17:03:27.259Z,4.20
2018-10-21T17:05:57.887Z,2.40
2018-10-21T17:08:27.711Z,2.80
2018-10-21T17:10:58.287Z,3.00
2018-10-21T17:13:28.383Z,3.40
2018-10-21T17:15:58.171Z,3.00
2018-10-21T17:18:28.841Z,2.20
2018-10-21T17:20:59.852Z,5.00
2018-10-21T17:23:30.780Z,2.80
2018-10-21T17:26:00.747Z,3.00
2018-10-21T17:28:30.967Z,3.00
2018-10-21T17:31:04.569Z,1.60
2018-10-21T17:33:35.900Z,2.00
2018-10-21T17:36:06.193Z,3.00
2018-10-21T17:38:38.211Z,2.40
2018-10-21T17:41:10.770Z,1.60
2018-10-21T17:43:41.469Z,1.00
2018-10-21T17:46:12.099Z,2.00
2018-10-21T17:48:41.747Z,2.00
2018-10-21T17:51:11.783Z,3.00
2018-10-21T17:53:41.824Z,2.60
2018-10-21T17:56:11.772Z,3.40
2018-10-21T17:58:41.958Z,2.00
2018-10-21T18:01:14.186Z,2.00
2018-10-21T18:03:45.781Z,3.00
2018-10-21T18:06:16.457Z,1.00
2018-10-21T18:08:46.271Z,2.00
2018-10-21T18:11:16.026Z,1.60
2018-10-21T18:13:46.085Z,3.00
2018-10-21T18:16:16.421Z,3.00
2018-10-21T18:18:46.971Z,6.60
2018-10-21T18:21:18.400Z,4.20
2018-10-21T18:23:49.059Z,3.40
2018-10-21T18:26:18.645Z,2.00
2018-10-21T18:28:48.649Z,5.00
2018-10-21T18:31:19.931Z,2.60
2018-10-21T18:33:49.745Z,4.60
2018-10-21T18:36:19.829Z,2.00
2018-10-21T18:38:51.098Z,2.00
2018-10-21T18:41:20.713Z,3.00
2018-10-21T18:43:50.824Z,2.60
2018-10-21T18:46:21.194Z,3.80
2018-10-21T18:48:51.712Z,3.00
2018-10-21T18:51:22.778Z,3.00
2018-10-21T18:53:53.087Z,3.80
2018-10-21T18:56:23.327Z,4.60
2018-10-21T18:58:53.668Z,2.00
2018-10-21T19:01:23.888Z,4.00
2018-10-21T19:03:54.657Z,2.00
2018-10-21T19:06:24.312Z,2.80
2018-10-21T19:08:54.652Z,4.60
2018-10-21T19:11:24.592Z,3.00
2018-10-21T19:13:54.560Z,3.00
2018-10-21T19:16:25.222Z,3.00
2018-10-21T19:18:55.107Z,2.00
2018-10-21T19:21:25.110Z,5.00
2018-10-21T19:23:55.240Z,5.20
2018-10-21T19:26:25.996Z,2.80
2018-10-21T19:28:56.572Z,2.00
2018-10-21T19:31:26.548Z,5.00
2018-10-21T19:33:56.411Z,3.40
2018-10-21T19:36:26.124Z,2.40
2018-10-21T19:38:56.435Z,2.80
2018-10-21T19:41:27.127Z,5.00
2018-10-21T19:43:56.724Z,5.00
2018-10-21T19:46:26.398Z,2.00
2018-10-21T19:48:56.203Z,2.00
2018-10-21T19:51:27.048Z,3.00
2018-10-21T19:53:58.156Z,3.80
2018-10-21T19:56:30.941Z,4.20
2018-10-21T19:59:06.364Z,2.40
2018-10-21T20:01:37.084Z,2.00
2018-10-21T20:04:08.820Z,3.00
2018-10-21T20:06:38.911Z,6.20
2018-10-21T20:09:10.336Z,3.00
2018-10-21T20:11:41.124Z,3.40
2018-10-21T20:14:11.312Z,5.80
2018-10-21T20:16:41.680Z,3.40
2018-10-21T20:19:11.853Z,3.40
2018-10-21T20:21:41.665Z,3.80
2018-10-21T20:24:12.332Z,2.00
2018-10-21T20:26:42.292Z,3.20
2018-10-21T20:29:12.608Z,3.00
2018-10-21T20:31:43.806Z,1.80
2018-10-21T20:34:14.623Z,3.00
2018-10-21T20:36:44.619Z,2.00
2018-10-21T20:39:14.861Z,1.80
2018-10-21T20:41:45.695Z,3.80
2018-10-21T20:44:16.353Z,5.20
2018-10-21T20:46:46.981Z,5.00
2018-10-21T20:49:17.232Z,4.00
2018-10-21T20:51:47.893Z,3.20
2018-10-21T20:54:17.874Z,3.40
2018-10-21T20:56:49.116Z,3.00
2018-10-21T20:59:19.467Z,3.00
2018-10-21T21:01:49.548Z,5.00
2018-10-21T21:04:19.693Z,4.60
2018-10-21T21:06:49.603Z,3.00
2018-10-21T21:09:19.348Z,6.20
2018-10-21T21:11:49.865Z,3.20
2018-10-21T21:14:20.085Z,2.00
2018-10-21T21:16:49.734Z,5.80
2018-10-21T21:19:19.486Z,6.80
2018-10-21T21:21:49.240Z,6.00
2018-10-21T21:24:19.039Z,4.00
2018-10-21T21:26:49.328Z,8.00
2018-10-21T21:29:19.205Z,6.00
2018-10-21T21:31:49.432Z,6.60
2018-10-21T21:34:19.193Z,5.80
2018-10-21T21:36:49.176Z,5.60
2018-10-21T21:39:19.095Z,5.80
2018-10-21T21:41:49.083Z,5.00
2018-10-21T21:44:19.379Z,6.60
2018-10-21T21:46:49.119Z,5.00
2018-10-21T21:49:19.059Z,4.60
2018-10-21T21:51:48.922Z,5.00
2018-10-21T21:54:18.627Z,6.00
2018-10-21T21:56:48.321Z,4.80
2018-10-21T21:59:19.511Z,5.00
2018-10-21T22:01:50.090Z,5.20
2018-10-21T22:04:19.864Z,5.00
2018-10-21T22:06:50.107Z,5.60
2018-10-21T22:09:20.117Z,5.00
2018-10-21T22:11:50.924Z,5.40
2018-10-21T22:14:20.600Z,5.20
2018-10-21T22:16:50.618Z,4.20
2018-10-21T22:19:20.241Z,5.40
2018-10-21T22:21:49.991Z,4.80
2018-10-21T22:24:19.868Z,5.00
2018-10-21T22:26:49.770Z,5.80
2018-10-21T22:29:20.121Z,7.20
2018-10-21T22:31:49.848Z,5.00
2018-10-21T22:34:19.676Z,5.20
2018-10-21T22:36:49.180Z,5.00
2018-10-21T22:39:18.851Z,6.60
2018-10-21T22:41:48.536Z,5.00
2018-10-21T22:44:18.158Z,4.80
2018-10-21T22:46:47.961Z,4.60
2018-10-21T22:49:17.796Z,4.00
2018-10-21T22:51:47.409Z,4.00
2018-10-21T22:54:17.707Z,3.60
2018-10-21T22:56:47.630Z,4.00
2018-10-21T22:59:18.096Z,4.00
2018-10-21T23:01:47.996Z,5.80
2018-10-21T23:04:18.281Z,8.00
2018-10-21T23:06:48.164Z,4.60
2018-10-21T23:09:18.643Z,4.00
2018-10-21T23:11:48.500Z,1.00
2018-10-21T23:14:18.604Z,4.40
2018-10-21T23:16:48.381Z,5.00
2018-10-21T23:19:28.805Z,4.80
2018-10-21T23:21:58.858Z,5.00
2018-10-21T23:24:28.508Z,4.00
2018-10-21T23:26:58.308Z,4.00
2018-10-21T23:29:28.391Z,3.60
2018-10-21T23:32:00.149Z,5.00
2018-10-21T23:34:30.120Z,4.00
2018-10-21T23:37:00.080Z,4.00
2018-10-21T23:39:30.293Z,4.00
2018-10-21T23:42:00.882Z,4.00
2018-10-21T23:44:32.074Z,5.40
2018-10-21T23:47:01.951Z,5.00
2018-10-21T23:49:31.936Z,4.00
2018-10-21T23:52:01.860Z,4.00
2018-10-21T23:54:32.169Z,2.80
2018-10-21T23:57:04.901Z,3.00
2018-10-21T23:59:35.495Z,2.80
